createdAt,value
2023-08-06T00:01:14.205Z,11.50
2023-08-06T00:03:40.953Z,9.80
2023-08-06T00:06:07.914Z,9.98
2023-08-06T00:08:34.639Z,11.40
2023-08-06T00:11:01.302Z,11.20
2023-08-06T00:13:27.971Z,11.20
2023-08-06T00:15:54.732Z,12.60
2023-08-06T00:18:21.451Z,9.60
2023-08-06T00:20:48.192Z,9.55
2023-08-06T00:23:14.987Z,9.20
2023-08-06T00:25:41.785Z,9.55
2023-08-06T00:28:08.488Z,10.07
2023-08-06T00:30:35.175Z,8.93
2023-08-06T00:33:01.901Z,9.90
2023-08-06T00:35:28.625Z,11.60
2023-08-06T00:37:55.299Z,9.80
2023-08-06T00:40:23.705Z,9.90
2023-08-06T00:42:50.471Z,10.73
2023-08-06T00:45:17.303Z,12.13
2023-08-06T00:47:44.243Z,11.65
2023-08-06T00:50:11.083Z,10.95
2023-08-06T00:52:38.309Z,11.02
2023-08-06T00:55:05.777Z,11.38
2023-08-06T00:57:32.481Z,12.35
2023-08-06T00:59:59.424Z,10.02
2023-08-06T01:02:26.195Z,9.73
2023-08-06T01:04:52.979Z,9.27
2023-08-06T01:07:28.379Z,10.90
2023-08-06T01:10:19.254Z,8.98
2023-08-06T01:13:07.097Z,11.35
2023-08-06T01:15:38.351Z,9.13
2023-08-06T01:18:05.271Z,9.15
2023-08-06T01:20:32.704Z,12.20
2023-08-06T01:22:59.462Z,10.75
2023-08-06T01:25:32.880Z,10.63
2023-08-06T01:28:10.507Z,11.68
2023-08-06T01:30:41.956Z,10.90
2023-08-06T01:33:11.618Z,10.38
2023-08-06T01:35:38.980Z,10.40
2023-08-06T01:38:05.756Z,9.38
2023-08-06T01:40:33.722Z,11.07
2023-08-06T01:43:00.444Z,9.65
2023-08-06T01:45:27.245Z,10.07
2023-08-06T01:47:54.014Z,9.38
2023-08-06T01:50:20.731Z,10.18
2023-08-06T01:52:47.420Z,10.95
2023-08-06T01:55:14.197Z,10.27
2023-08-06T01:57:40.939Z,11.52
2023-08-06T02:00:08.324Z,11.80
2023-08-06T02:02:35.218Z,11.00
2023-08-06T02:05:02.047Z,9.45
2023-08-06T02:07:28.799Z,10.32
2023-08-06T02:09:55.483Z,9.75
2023-08-06T02:12:22.192Z,10.55
2023-08-06T02:14:49.212Z,10.18
2023-08-06T02:17:15.901Z,12.50
2023-08-06T02:19:44.338Z,9.68
2023-08-06T02:22:11.054Z,9.35
2023-08-06T02:24:37.710Z,9.65
2023-08-06T02:27:04.683Z,9.50
2023-08-06T02:29:31.356Z,9.93
2023-08-06T02:31:58.170Z,10.50
2023-08-06T02:34:24.900Z,9.85
2023-08-06T02:36:51.581Z,9.02
2023-08-06T02:39:18.938Z,10.93
2023-08-06T02:41:45.706Z,10.95
2023-08-06T02:44:12.478Z,10.30
2023-08-06T02:46:39.194Z,11.63
2023-08-06T02:49:05.919Z,9.90
2023-08-06T02:51:32.578Z,9.70
2023-08-06T02:53:59.334Z,8.85
2023-08-06T02:56:27.485Z,10.98
2023-08-06T02:58:54.158Z,10.15
2023-08-06T03:01:20.983Z,10.27
2023-08-06T03:03:47.754Z,9.93
2023-08-06T03:06:14.563Z,9.88
2023-08-06T03:08:41.408Z,9.98
2023-08-06T03:11:08.117Z,9.60
2023-08-06T03:13:34.815Z,9.70
2023-08-06T03:16:01.960Z,9.48
2023-08-06T03:18:29.186Z,11.27
2023-08-06T03:20:55.921Z,12.13
2023-08-06T03:23:22.794Z,13.27
2023-08-06T03:25:49.527Z,13.45
2023-08-06T03:28:16.288Z,13.55
2023-08-06T03:30:43.010Z,15.90
2023-08-06T03:33:09.780Z,14.40
2023-08-06T03:35:36.459Z,17.42
2023-08-06T03:38:03.285Z,12.18
2023-08-06T03:40:29.957Z,16.13
2023-08-06T03:42:56.649Z,11.90
2023-08-06T03:45:23.378Z,13.02
2023-08-06T03:47:50.108Z,12.73
2023-08-06T03:50:16.955Z,14.60
2023-08-06T03:52:44.117Z,15.02
2023-08-06T03:55:10.756Z,16.67
2023-08-06T03:57:37.495Z,24.75
2023-08-06T04:00:05.265Z,23.77
2023-08-06T04:02:32.028Z,19.30
2023-08-06T04:05:00.257Z,24.38
2023-08-06T04:07:27.100Z,18.55
2023-08-06T04:09:58.837Z,23.33
2023-08-06T04:12:25.595Z,19.35
2023-08-06T04:14:56.154Z,19.05
2023-08-06T04:17:23.088Z,14.63
2023-08-06T04:19:51.800Z,13.82
2023-08-06T04:22:19.522Z,13.98
2023-08-06T04:24:46.382Z,13.25
2023-08-06T04:27:13.681Z,12.15
2023-08-06T04:29:40.472Z,11.10
2023-08-06T04:32:09.063Z,11.55
2023-08-06T04:34:36.597Z,10.63
2023-08-06T04:37:04.295Z,9.18
2023-08-06T04:39:31.377Z,10.88
2023-08-06T04:42:00.958Z,8.75
2023-08-06T04:44:27.702Z,11.18
2023-08-06T04:46:54.456Z,10.43
2023-08-06T04:49:24.272Z,8.40
2023-08-06T04:51:51.404Z,11.52
2023-08-06T04:54:18.226Z,9.80
2023-08-06T04:56:44.909Z,10.50
2023-08-06T04:59:11.693Z,8.18
2023-08-06T05:01:38.424Z,7.95
2023-08-06T05:04:05.251Z,7.00
2023-08-06T05:06:31.989Z,7.55
2023-08-06T05:08:58.781Z,7.82
2023-08-06T05:11:25.992Z,7.10
2023-08-06T05:13:52.672Z,5.95
2023-08-06T05:16:19.407Z,8.05
2023-08-06T05:18:46.169Z,6.97
2023-08-06T05:21:12.882Z,8.90
2023-08-06T05:23:39.597Z,9.35
2023-08-06T05:26:06.309Z,7.30
2023-08-06T05:28:33.036Z,7.72
2023-08-06T05:30:59.774Z,7.93
2023-08-06T05:33:26.546Z,7.63
2023-08-06T05:35:53.357Z,7.60
2023-08-06T05:38:20.075Z,6.53
2023-08-06T05:40:46.836Z,6.35
2023-08-06T05:43:15.833Z,6.10
2023-08-06T05:45:46.800Z,6.85
2023-08-06T05:48:13.753Z,6.45
2023-08-06T05:50:40.458Z,5.93
2023-08-06T05:53:07.228Z,7.78
2023-08-06T05:55:34.345Z,6.78
2023-08-06T05:58:01.304Z,6.82
2023-08-06T06:00:28.177Z,6.85
2023-08-06T06:02:55.085Z,6.35
2023-08-06T06:05:21.883Z,6.75
2023-08-06T06:07:48.621Z,6.05
2023-08-06T06:10:15.326Z,7.15
2023-08-06T06:12:42.321Z,11.85
2023-08-06T06:15:09.477Z,9.32
2023-08-06T06:17:36.681Z,9.20
2023-08-06T06:20:05.366Z,7.22
2023-08-06T06:24:58.728Z,6.57
2023-08-06T06:27:25.424Z,6.25
2023-08-06T06:29:53.662Z,6.75
2023-08-06T06:32:20.409Z,5.85
2023-08-06T06:34:47.307Z,7.18
2023-08-06T06:37:13.984Z,6.65
2023-08-06T06:39:40.701Z,7.15
2023-08-06T06:42:07.474Z,7.57
2023-08-06T06:44:34.178Z,6.30
2023-08-06T06:47:00.919Z,6.47
2023-08-06T06:49:27.625Z,7.57
2023-08-06T06:51:54.668Z,6.97
2023-08-06T06:54:21.590Z,6.88
2023-08-06T06:56:48.332Z,6.20
2023-08-06T06:59:15.145Z,7.22
2023-08-06T07:01:41.830Z,6.15
2023-08-06T07:04:08.539Z,6.82
2023-08-06T07:06:35.239Z,6.05
2023-08-06T07:09:01.938Z,6.03
2023-08-06T07:11:28.694Z,6.60
2023-08-06T07:14:02.656Z,4.95
2023-08-06T07:16:30.484Z,6.80
2023-08-06T07:18:57.449Z,5.50
2023-08-06T07:21:24.143Z,5.20
2023-08-06T07:23:50.973Z,5.97
2023-08-06T07:26:18.733Z,5.65
2023-08-06T07:28:46.001Z,6.53
2023-08-06T07:31:13.308Z,6.03
2023-08-06T07:33:40.182Z,7.65
2023-08-06T07:36:14.139Z,6.53
2023-08-06T07:38:41.481Z,6.35
2023-08-06T07:41:08.289Z,6.05
2023-08-06T07:43:34.998Z,6.45
2023-08-06T07:46:02.038Z,7.38
2023-08-06T07:48:28.975Z,5.32
2023-08-06T07:50:56.395Z,5.07
2023-08-06T07:53:23.769Z,5.57
2023-08-06T07:55:54.543Z,5.55
2023-08-06T07:58:21.674Z,6.55
2023-08-06T08:00:48.612Z,5.97
2023-08-06T08:03:16.182Z,6.45
2023-08-06T08:05:43.809Z,6.15
2023-08-06T08:08:10.575Z,5.47
2023-08-06T08:10:38.969Z,6.03
2023-08-06T08:13:06.137Z,6.72
2023-08-06T08:15:33.421Z,4.80
2023-08-06T08:18:00.609Z,6.07
2023-08-06T08:20:32.719Z,6.57
2023-08-06T08:23:03.384Z,6.25
2023-08-06T08:25:31.781Z,4.38
2023-08-06T08:30:26.523Z,5.85
2023-08-06T08:32:53.696Z,5.30
2023-08-06T08:35:20.542Z,5.60
2023-08-06T08:37:47.293Z,5.60
2023-08-06T08:40:15.674Z,5.93
2023-08-06T08:42:45.839Z,4.82
2023-08-06T08:45:16.214Z,4.40
2023-08-06T08:47:47.890Z,5.63
2023-08-06T08:50:15.876Z,4.70
2023-08-06T08:52:43.526Z,6.03
2023-08-06T08:55:10.452Z,5.78
2023-08-06T08:57:37.588Z,5.43
2023-08-06T09:00:05.031Z,4.38
2023-08-06T09:02:34.154Z,6.00
2023-08-06T09:05:05.706Z,6.55
2023-08-06T09:07:45.353Z,5.65
2023-08-06T09:10:14.955Z,4.53
2023-08-06T09:12:42.747Z,4.32
2023-08-06T09:15:09.757Z,4.95
2023-08-06T09:17:37.523Z,6.20
2023-08-06T09:20:12.554Z,5.60
2023-08-06T09:22:39.524Z,5.95
2023-08-06T09:25:10.989Z,5.97
2023-08-06T09:27:38.692Z,5.95
2023-08-06T09:30:08.109Z,6.28
2023-08-06T09:32:49.320Z,4.82
2023-08-06T09:35:19.620Z,5.93
2023-08-06T09:37:48.850Z,6.18
2023-08-06T09:40:29.716Z,6.25
2023-08-06T09:42:57.488Z,6.38
2023-08-06T09:45:31.754Z,6.32
2023-08-06T09:47:59.131Z,4.50
2023-08-06T09:50:30.662Z,7.28
2023-08-06T09:52:57.635Z,5.22
2023-08-06T09:55:26.020Z,5.68
2023-08-06T09:57:52.811Z,5.47
2023-08-06T10:00:19.612Z,4.40
2023-08-06T10:02:51.137Z,5.78
2023-08-06T10:05:18.500Z,8.52
2023-08-06T10:07:46.188Z,6.75
2023-08-06T10:10:12.922Z,5.90
2023-08-06T10:12:47.994Z,5.65
2023-08-06T10:15:17.607Z,6.05
2023-08-06T10:17:51.365Z,5.38
2023-08-06T10:20:19.912Z,5.88
2023-08-06T10:23:01.834Z,5.35
2023-08-06T10:25:32.194Z,5.18
2023-08-06T10:27:58.989Z,7.78
2023-08-06T10:30:34.317Z,7.60
2023-08-06T10:33:02.635Z,5.78
2023-08-06T10:35:46.685Z,6.15
2023-08-06T10:38:24.103Z,5.88
2023-08-06T10:41:03.148Z,5.45
2023-08-06T10:43:40.139Z,6.05
2023-08-06T10:46:23.431Z,4.65
2023-08-06T10:48:50.472Z,5.47
2023-08-06T10:51:17.167Z,8.25
2023-08-06T10:53:47.802Z,8.02
2023-08-06T10:56:15.855Z,5.88
2023-08-06T10:58:43.493Z,6.55
2023-08-06T11:01:10.590Z,5.78
2023-08-06T11:03:37.968Z,5.47
2023-08-06T11:06:06.261Z,6.25
2023-08-06T11:08:37.788Z,6.07
2023-08-06T11:11:15.336Z,5.97
2023-08-06T11:13:43.449Z,6.25
2023-08-06T11:16:11.036Z,6.18
2023-08-06T11:18:37.808Z,5.35
2023-08-06T11:21:04.551Z,5.85
2023-08-06T11:23:31.498Z,5.10
2023-08-06T11:25:58.792Z,5.28
2023-08-06T11:28:25.803Z,6.50
2023-08-06T11:30:53.109Z,7.20
2023-08-06T11:33:23.922Z,13.43
2023-08-06T11:35:50.878Z,6.38
2023-08-06T11:38:17.811Z,22.70
2023-08-06T11:40:48.543Z,5.47
2023-08-06T11:43:15.792Z,5.28
2023-08-06T11:45:42.619Z,5.15
2023-08-06T11:48:09.769Z,5.28
2023-08-06T11:50:40.072Z,7.70
2023-08-06T11:53:07.062Z,5.30
2023-08-06T11:55:34.336Z,8.10
2023-08-06T11:58:05.806Z,6.40
2023-08-06T12:00:32.673Z,6.30
2023-08-06T12:02:59.573Z,5.95
2023-08-06T12:05:34.708Z,6.20
2023-08-06T12:08:03.334Z,5.43
2023-08-06T12:10:31.039Z,5.60
2023-08-06T12:12:58.166Z,4.90
2023-08-06T12:15:25.252Z,5.90
2023-08-06T12:17:51.971Z,4.18
2023-08-06T12:20:18.950Z,4.65
2023-08-06T12:22:47.098Z,4.22
2023-08-06T12:25:32.902Z,3.78
2023-08-06T12:27:59.572Z,4.10
2023-08-06T12:30:26.286Z,4.07
2023-08-06T12:32:53.276Z,4.35
2023-08-06T12:35:21.248Z,4.15
2023-08-06T12:37:48.061Z,4.43
2023-08-06T12:40:34.946Z,5.10
2023-08-06T12:43:01.742Z,4.50
2023-08-06T12:45:28.498Z,5.32
2023-08-06T12:47:55.333Z,4.20
2023-08-06T12:50:22.076Z,4.28
2023-08-06T12:52:48.906Z,4.50
2023-08-06T12:55:15.655Z,4.75
2023-08-06T13:00:12.284Z,4.47
2023-08-06T13:02:39.037Z,5.03
2023-08-06T13:05:07.355Z,4.88
2023-08-06T13:07:34.024Z,4.63
2023-08-06T13:10:00.819Z,4.10
2023-08-06T13:12:27.603Z,5.82
2023-08-06T13:14:54.333Z,4.68
2023-08-06T13:17:21.119Z,4.40
2023-08-06T13:19:47.966Z,4.10
2023-08-06T13:22:14.679Z,3.65
2023-08-06T13:24:41.422Z,3.90
2023-08-06T13:27:08.111Z,3.22
2023-08-06T13:29:34.825Z,3.47
2023-08-06T13:32:01.618Z,4.53
2023-08-06T13:34:28.378Z,3.80
2023-08-06T13:36:55.456Z,3.75
2023-08-06T13:39:23.759Z,3.35
2023-08-06T13:41:50.535Z,4.45
2023-08-06T13:44:17.228Z,4.47
2023-08-06T13:46:44.021Z,3.55
2023-08-06T13:49:10.916Z,2.95
2023-08-06T13:51:38.216Z,3.03
2023-08-06T13:54:04.946Z,3.33
2023-08-06T13:56:33.317Z,3.30
2023-08-06T13:59:00.189Z,2.92
2023-08-06T14:01:35.411Z,3.63
2023-08-06T14:04:11.201Z,3.42
2023-08-06T14:06:37.881Z,3.95
2023-08-06T14:09:04.562Z,4.10
2023-08-06T14:11:31.452Z,3.88
2023-08-06T14:13:58.267Z,4.28
2023-08-06T14:16:24.912Z,4.30
2023-08-06T14:18:51.630Z,4.18
2023-08-06T14:21:18.304Z,3.88
2023-08-06T14:23:45.091Z,5.88
2023-08-06T14:26:12.077Z,5.25
2023-08-06T14:28:38.782Z,4.78
2023-08-06T14:31:05.565Z,4.40
2023-08-06T14:33:32.339Z,6.90
2023-08-06T14:35:59.229Z,4.15
2023-08-06T14:38:25.887Z,4.32
2023-08-06T14:40:53.721Z,4.82
2023-08-06T14:43:21.766Z,4.65
2023-08-06T14:45:48.479Z,4.35
2023-08-06T14:48:15.152Z,4.10
2023-08-06T14:50:42.378Z,3.53
2023-08-06T14:53:09.550Z,3.80
2023-08-06T14:55:36.429Z,4.35
2023-08-06T14:58:03.222Z,3.72
2023-08-06T15:00:30.125Z,4.10
2023-08-06T15:02:57.022Z,4.63
2023-08-06T15:05:23.795Z,4.63
2023-08-06T15:07:50.617Z,5.75
2023-08-06T15:10:26.744Z,4.10
2023-08-06T15:12:54.543Z,5.32
2023-08-06T15:15:21.428Z,5.68
2023-08-06T15:17:48.200Z,5.05
2023-08-06T15:20:15.254Z,6.03
2023-08-06T15:22:42.173Z,6.63
2023-08-06T15:25:09.191Z,6.15
2023-08-06T15:27:36.452Z,5.35
2023-08-06T15:30:08.604Z,4.90
2023-08-06T15:32:35.388Z,5.47
2023-08-06T15:35:05.426Z,5.40
2023-08-06T15:37:32.179Z,5.28
2023-08-06T15:39:59.494Z,5.93
2023-08-06T15:42:26.307Z,6.00
2023-08-06T15:44:53.223Z,6.35
2023-08-06T15:47:20.005Z,5.47
2023-08-06T15:49:46.741Z,6.20
2023-08-06T15:52:13.443Z,6.28
2023-08-06T15:54:40.117Z,6.72
2023-08-06T15:57:06.880Z,7.15
2023-08-06T15:59:34.307Z,6.45
2023-08-06T16:02:04.077Z,7.63
2023-08-06T16:04:31.997Z,5.70
2023-08-06T16:06:59.837Z,6.53
2023-08-06T16:09:27.084Z,6.47
2023-08-06T16:11:54.633Z,6.18
2023-08-06T16:14:21.695Z,6.32
2023-08-06T16:16:48.704Z,5.60
2023-08-06T16:19:15.886Z,7.70
2023-08-06T16:21:42.857Z,6.60
2023-08-06T16:24:10.278Z,6.53
2023-08-06T16:26:37.846Z,6.32
2023-08-06T16:29:04.855Z,5.68
2023-08-06T16:31:31.803Z,9.80
2023-08-06T16:33:58.642Z,6.35
2023-08-06T16:36:25.907Z,8.30
2023-08-06T16:38:52.771Z,7.63
2023-08-06T16:41:19.505Z,11.50
2023-08-06T16:43:46.532Z,7.75
2023-08-06T16:46:13.590Z,5.00
2023-08-06T16:48:40.860Z,6.13
2023-08-06T16:51:07.921Z,4.80
2023-08-06T16:53:34.739Z,4.28
2023-08-06T16:56:02.093Z,4.35
2023-08-06T16:58:29.016Z,5.05
2023-08-06T17:00:57.250Z,3.42
2023-08-06T17:03:24.428Z,5.10
2023-08-06T17:05:52.810Z,3.70
2023-08-06T17:08:19.491Z,5.82
2023-08-06T17:10:46.253Z,8.73
2023-08-06T17:13:20.847Z,5.80
2023-08-06T17:15:49.213Z,4.60
2023-08-06T17:18:18.201Z,4.22
2023-08-06T17:20:48.252Z,4.25
2023-08-06T17:23:16.233Z,7.18
2023-08-06T17:25:43.826Z,3.72
2023-08-06T17:28:10.631Z,4.00
2023-08-06T17:30:38.287Z,4.97
2023-08-06T17:33:05.030Z,3.83
2023-08-06T17:35:33.473Z,3.95
2023-08-06T17:38:01.768Z,4.07
2023-08-06T17:40:29.903Z,4.07
2023-08-06T17:42:56.650Z,3.53
2023-08-06T17:45:24.496Z,4.35
2023-08-06T17:47:52.572Z,3.63
2023-08-06T17:50:19.759Z,3.60
2023-08-06T17:52:47.307Z,3.42
2023-08-06T17:55:14.198Z,4.00
2023-08-06T17:57:40.935Z,4.88
2023-08-06T18:00:09.302Z,3.40
2023-08-06T18:02:36.325Z,4.25
2023-08-06T18:05:04.444Z,4.25
2023-08-06T18:07:31.236Z,4.15
2023-08-06T18:09:58.154Z,4.15
2023-08-06T18:12:24.917Z,4.35
2023-08-06T18:14:51.712Z,4.97
2023-08-06T18:17:18.652Z,4.40
2023-08-06T18:19:45.397Z,4.20
2023-08-06T18:22:12.137Z,4.78
2023-08-06T18:24:38.850Z,8.88
2023-08-06T18:27:05.764Z,3.63
2023-08-06T18:29:32.530Z,4.57
2023-08-06T18:31:59.205Z,3.50
2023-08-06T18:34:25.924Z,3.78
2023-08-06T18:36:52.967Z,4.30
2023-08-06T18:39:19.974Z,4.32
2023-08-06T18:41:47.727Z,6.20
2023-08-06T18:44:14.443Z,3.90
2023-08-06T18:46:41.437Z,3.70
2023-08-06T18:49:08.222Z,3.88
2023-08-06T18:51:35.009Z,3.53
2023-08-06T18:54:01.761Z,4.82
2023-08-06T18:56:28.500Z,3.85
2023-08-06T18:58:55.332Z,3.53
2023-08-06T19:01:22.138Z,4.78
2023-08-06T19:03:49.537Z,3.40
2023-08-06T19:06:16.504Z,3.78
2023-08-06T19:08:43.227Z,3.38
2023-08-06T19:11:10.064Z,3.85
2023-08-06T19:13:36.801Z,3.22
2023-08-06T19:16:03.859Z,3.88
2023-08-06T19:18:30.759Z,3.08
2023-08-06T19:21:00.257Z,3.03
2023-08-06T19:23:28.960Z,3.30
2023-08-06T19:28:22.949Z,4.22
2023-08-06T19:30:49.886Z,5.78
2023-08-06T19:33:17.825Z,3.53
2023-08-06T19:35:52.256Z,3.45
2023-08-06T19:38:25.873Z,3.60
2023-08-06T19:41:04.997Z,3.35
2023-08-06T19:43:31.853Z,4.03
2023-08-06T19:45:59.731Z,3.65
2023-08-06T19:48:27.777Z,3.63
2023-08-06T19:51:01.231Z,3.60
2023-08-06T19:53:35.690Z,3.78
2023-08-06T19:56:04.216Z,4.03
2023-08-06T19:58:32.958Z,6.97
2023-08-06T20:01:00.104Z,3.85
2023-08-06T20:03:27.303Z,3.53
2023-08-06T20:05:54.160Z,4.13
2023-08-06T20:08:20.873Z,3.90
2023-08-06T20:10:48.777Z,3.50
2023-08-06T20:13:16.081Z,3.72
2023-08-06T20:15:43.447Z,4.57
2023-08-06T20:18:13.206Z,2.97
2023-08-06T20:20:40.500Z,3.17
2023-08-06T20:23:07.489Z,4.65
2023-08-06T20:25:34.948Z,3.78
2023-08-06T20:28:02.872Z,3.42
2023-08-06T20:30:29.698Z,3.65
2023-08-06T20:32:56.388Z,3.40
2023-08-06T20:35:23.162Z,4.28
2023-08-06T20:37:49.931Z,5.25
2023-08-06T20:40:16.669Z,3.92
2023-08-06T20:42:44.213Z,4.10
2023-08-06T20:45:11.138Z,3.40
2023-08-06T20:47:38.004Z,2.80
2023-08-06T20:50:05.163Z,3.78
2023-08-06T20:52:31.863Z,4.22
2023-08-06T20:54:58.595Z,3.33
2023-08-06T20:57:25.280Z,2.92
2023-08-06T20:59:51.934Z,3.25
2023-08-06T21:02:19.962Z,3.28
2023-08-06T21:04:50.020Z,3.70
2023-08-06T21:07:16.980Z,3.47
2023-08-06T21:09:43.773Z,3.70
2023-08-06T21:12:10.619Z,4.53
2023-08-06T21:14:37.396Z,3.67
2023-08-06T21:17:04.376Z,3.33
2023-08-06T21:19:31.354Z,4.47
2023-08-06T21:21:58.122Z,2.92
2023-08-06T21:24:24.930Z,4.28
2023-08-06T21:26:51.676Z,4.53
2023-08-06T21:29:18.374Z,3.60
2023-08-06T21:31:45.100Z,3.38
2023-08-06T21:34:11.794Z,3.20
2023-08-06T21:36:38.555Z,2.92
2023-08-06T21:39:05.293Z,3.53
2023-08-06T21:41:31.953Z,3.45
2023-08-06T21:43:58.670Z,3.42
2023-08-06T21:46:25.518Z,3.00
2023-08-06T21:48:52.218Z,3.42
2023-08-06T21:51:20.612Z,2.92
2023-08-06T21:53:48.900Z,3.95
2023-08-06T21:56:16.632Z,3.53
2023-08-06T21:58:48.290Z,3.03
2023-08-06T22:01:16.293Z,3.90
2023-08-06T22:03:46.817Z,4.13
2023-08-06T22:06:14.026Z,4.40
2023-08-06T22:08:41.544Z,3.47
2023-08-06T22:11:08.412Z,4.95
2023-08-06T22:13:37.173Z,3.03
2023-08-06T22:16:04.193Z,4.50
2023-08-06T22:18:31.035Z,3.05
2023-08-06T22:20:58.600Z,3.00
2023-08-06T22:23:25.738Z,3.65
2023-08-06T22:25:56.822Z,3.08
2023-08-06T22:28:24.484Z,3.53
2023-08-06T22:30:51.990Z,3.70
2023-08-06T22:33:19.470Z,3.20
2023-08-06T22:35:46.553Z,3.05
2023-08-06T22:38:13.278Z,2.97
2023-08-06T22:40:40.000Z,3.10
2023-08-06T22:43:06.714Z,4.15
2023-08-06T22:45:33.509Z,3.15
2023-08-06T22:48:00.286Z,3.30
2023-08-06T22:50:27.246Z,2.90
2023-08-06T22:52:53.982Z,2.90
2023-08-06T22:55:41.286Z,3.30
2023-08-06T22:58:09.780Z,4.10
2023-08-06T23:00:36.455Z,3.13
2023-08-06T23:03:11.006Z,2.92
2023-08-06T23:05:40.452Z,4.43
2023-08-06T23:08:07.299Z,3.28
2023-08-06T23:10:34.194Z,3.30
2023-08-06T23:13:00.881Z,3.30
2023-08-06T23:15:27.554Z,3.85
2023-08-06T23:17:54.246Z,2.92
2023-08-06T23:20:20.904Z,3.13
2023-08-06T23:22:47.858Z,3.35
2023-08-06T23:25:14.688Z,3.65
2023-08-06T23:27:41.452Z,3.95
2023-08-06T23:30:08.815Z,3.70
2023-08-06T23:32:36.196Z,4.43
2023-08-06T23:35:04.219Z,4.10
2023-08-06T23:38:01.867Z,3.20
2023-08-06T23:40:28.597Z,3.25
2023-08-06T23:42:55.282Z,3.65
2023-08-06T23:45:21.989Z,3.83
2023-08-06T23:47:48.785Z,3.53
2023-08-06T23:50:16.210Z,4.45
2023-08-06T23:52:42.908Z,3.00
2023-08-06T23:55:09.699Z,4.95
2023-08-06T23:57:38.688Z,3.28
